Time;durP1;ratioP1;P1;durP2;ratioP2;P2;SDS_P1;SDS_P2;PMS_P1;PMS_P2;Temp;Humidity;BMP_temperature;BMP_pressure;BME280_temperature;BME280_humidity;BME280_pressure;Samples;Min_cycle;Max_cycle;Signal;HPM_P1;HPM_P2
2023/12/19 00:02:14;;;;;;;18.20;14.27;;;;;;;6.05;85.92;100669.97;5092651;28;20256;-65
2023/12/19 00:04:42;;;;;;;19.00;13.00;;;;;;;6.03;85.91;100662.19;5092433;28;20240;-65
2023/12/19 00:07:09;;;;;;;18.40;13.10;;;;;;;6.05;86.20;100659.41;5091921;28;20195;-65
2023/12/19 00:09:36;;;;;;;14.40;12.17;;;;;;;6.00;85.71;100657.19;5092354;28;20748;-65
2023/12/19 00:12:04;;;;;;;16.10;11.60;;;;;;;6.01;85.91;100663.28;5090821;28;20215;-64
2023/12/19 00:14:30;;;;;;;14.00;11.27;;;;;;;5.96;85.64;100660.25;5092007;28;20668;-64
2023/12/19 00:16:58;;;;;;;16.07;11.43;;;;;;;5.95;85.53;100663.88;5091948;28;20192;-65
2023/12/19 00:19:25;;;;;;;13.20;11.67;;;;;;;5.91;85.28;100660.66;5092187;28;20192;-64
2023/12/19 00:21:53;;;;;;;13.93;11.60;;;;;;;5.86;85.48;100667.28;5092289;28;20195;-64
2023/12/19 00:24:19;;;;;;;14.03;11.47;;;;;;;5.81;85.77;100664.25;5092379;28;20244;-65
2023/12/19 00:26:46;;;;;;;13.20;11.80;;;;;;;5.77;85.83;100667.13;5091860;28;20195;-65
2023/12/19 00:29:13;;;;;;;12.93;11.63;;;;;;;5.71;86.20;100664.19;5091846;28;20615;-65
2023/12/19 00:31:39;;;;;;;14.57;10.60;;;;;;;5.68;86.97;100656.59;5091693;28;20287;-65
2023/12/19 00:34:06;;;;;;;11.87;10.57;;;;;;;5.66;86.85;100656.72;5091807;28;20624;-65
2023/12/19 00:36:33;;;;;;;12.63;11.20;;;;;;;5.63;86.61;100664.88;5085804;28;20237;-65
2023/12/19 00:39:04;;;;;;;14.83;11.33;;;;;;;5.51;86.41;100663.34;5071616;28;20745;-65
2023/12/19 00:41:31;;;;;;;12.93;11.53;;;;;;;5.38;86.83;100670.66;5071743;28;20242;-65
2023/12/19 00:43:58;;;;;;;13.27;11.93;;;;;;;5.27;87.83;100662.84;5071481;28;20258;-64
2023/12/19 00:46:25;;;;;;;17.57;12.67;;;;;;;5.26;88.53;100665.63;5071170;28;20192;-64
2023/12/19 00:48:51;;;;;;;14.47;11.63;;;;;;;5.12;88.96;100660.72;5071571;28;20265;-64
2023/12/19 00:51:20;;;;;;;15.03;12.20;;;;;;;5.06;89.47;100662.09;5071503;28;20220;-64
2023/12/19 00:53:46;;;;;;;19.87;16.13;;;;;;;5.05;89.86;100663.06;5071499;28;20574;-64
2023/12/19 00:56:15;;;;;;;13.67;11.97;;;;;;;5.02;89.74;100663.31;5071939;28;20193;-64
2023/12/19 00:58:44;;;;;;;11.07;9.97;;;;;;;4.97;90.10;100665.50;5071673;28;20191;-63
2023/12/19 01:01:11;;;;;;;11.73;10.53;;;;;;;4.99;91.24;100657.50;5071334;28;20192;-64
2023/12/19 01:03:38;;;;;;;16.20;12.27;;;;;;;5.01;90.50;100656.38;5071588;28;20196;-64
2023/12/19 01:06:06;;;;;;;13.70;11.97;;;;;;;5.01;90.03;100648.50;5071757;28;20230;-64
2023/12/19 01:08:33;;;;;;;13.83;12.33;;;;;;;5.00;90.34;100646.84;5071543;28;20191;-64
2023/12/19 01:11:00;;;;;;;16.60;11.73;;;;;;;4.96;89.57;100637.53;5071493;28;20227;-64
2023/12/19 01:13:28;;;;;;;16.50;12.67;;;;;;;4.97;90.03;100639.19;5071091;28;20622;-65
2023/12/19 01:15:55;;;;;;;14.77;12.20;;;;;;;4.98;89.98;100638.22;5071499;28;20223;-64
2023/12/19 01:18:21;;;;;;;17.33;12.20;;;;;;;4.97;89.64;100633.91;5070790;28;20192;-65
2023/12/19 01:20:49;;;;;;;13.73;11.23;;;;;;;4.94;89.18;100639.44;5071055;28;20249;-65
2023/12/19 01:23:16;;;;;;;17.50;13.17;;;;;;;4.86;89.12;100626.09;5073181;28;20298;-65
2023/12/19 01:25:43;;;;;;;13.37;11.97;;;;;;;4.86;89.12;100634.00;5075070;28;20192;-64
2023/12/19 01:28:11;;;;;;;15.53;12.13;;;;;;;4.83;89.22;100631.63;5075269;28;20206;-65
2023/12/19 01:30:39;;;;;;;17.30;12.20;;;;;;;4.70;89.04;100636.28;5074886;28;20664;-65
2023/12/19 01:33:06;;;;;;;13.87;11.33;;;;;;;4.59;90.31;100633.75;5075041;28;20239;-65
2023/12/19 01:35:33;;;;;;;13.33;11.37;;;;;;;4.55;91.06;100627.09;5074848;28;20664;-65
2023/12/19 01:37:59;;;;;;;16.07;12.20;;;;;;;4.55;90.94;100627.09;5093501;28;20199;-65
2023/12/19 01:40:28;;;;;;;14.87;12.97;;;;;;;4.44;91.33;100619.25;5094725;28;20244;-65
2023/12/19 01:42:55;;;;;;;14.10;11.33;;;;;;;4.39;91.71;100621.44;5094832;28;20732;-65
2023/12/19 01:45:23;;;;;;;18.57;12.37;;;;;;;4.35;91.50;100603.41;5095202;28;20195;-65
2023/12/19 01:47:51;;;;;;;14.20;11.07;;;;;;;4.43;91.44;100606.22;5095257;28;20217;-65
2023/12/19 01:50:18;;;;;;;13.10;11.70;;;;;;;4.42;91.61;100610.66;5095313;28;20240;-65
2023/12/19 01:52:49;;;;;;;14.73;12.67;;;;;;;4.39;90.99;100604.81;5094481;28;20698;-65
2023/12/19 01:55:17;;;;;;;12.47;11.27;;;;;;;4.38;91.19;100608.41;5094398;28;20183;-65
2023/12/19 01:57:44;;;;;;;13.43;12.10;;;;;;;4.36;91.72;100605.91;5094854;28;20336;-66
2023/12/19 02:00:13;;;;;;;14.07;12.07;;;;;;;4.35;91.59;100599.00;5094486;28;20201;-64
2023/12/19 02:02:40;;;;;;;15.33;11.37;;;;;;;4.34;91.05;100601.75;5094470;28;20192;-65
2023/12/19 02:05:09;;;;;;;17.20;11.33;;;;;;;4.33;91.13;100605.34;5094666;28;20521;-65
2023/12/19 02:07:35;;;;;;;17.47;12.00;;;;;;;4.30;91.30;100606.41;5094965;28;20191;-64
2023/12/19 02:10:02;;;;;;;12.10;10.60;;;;;;;4.32;91.38;100615.03;5094649;28;20445;-65
2023/12/19 02:12:29;;;;;;;14.00;11.33;;;;;;;4.33;91.22;100619.31;5094633;28;20257;-64
2023/12/19 02:14:56;;;;;;;16.37;12.00;;;;;;;4.33;91.27;100610.63;5093956;28;20256;-65
2023/12/19 02:17:23;;;;;;;11.47;10.37;;;;;;;4.33;91.61;100611.44;5094470;28;20286;-64
2023/12/19 02:19:51;;;;;;;12.33;11.03;;;;;;;4.36;91.75;100610.31;5094627;28;20326;-65
2023/12/19 02:22:20;;;;;;;13.13;10.23;;;;;;;4.38;92.02;100619.75;5094246;28;20234;-65
2023/12/19 02:24:48;;;;;;;12.37;11.00;;;;;;;4.38;91.84;100606.59;5094291;28;20662;-65
2023/12/19 02:27:16;;;;;;;11.63;10.33;;;;;;;4.32;91.20;100598.41;5094653;28;20313;-65
2023/12/19 02:29:42;;;;;;;12.27;10.90;;;;;;;4.23;90.95;100601.81;5093778;28;20265;-65
2023/12/19 02:32:09;;;;;;;14.00;10.90;;;;;;;4.22;91.92;100601.00;5093931;28;20702;-65
2023/12/19 02:34:36;;;;;;;11.20;10.03;;;;;;;4.21;91.50;100596.69;5093165;28;20605;-65
2023/12/19 02:37:03;;;;;;;13.27;10.73;;;;;;;4.15;91.06;100594.56;5094453;28;20445;-65
2023/12/19 02:39:30;;;;;;;11.73;10.50;;;;;;;4.13;91.09;100593.84;5094062;28;20195;-66
2023/12/19 02:41:58;;;;;;;12.03;10.47;;;;;;;3.87;90.80;100555.78;5094103;28;20506;-65
2023/12/19 02:44:24;;;;;;;12.97;10.73;;;;;;;4.14;91.68;100589.44;5094139;28;20256;-65
2023/12/19 02:46:51;;;;;;;11.07;9.97;;;;;;;4.15;91.87;100597.22;5093540;28;20194;-65
2023/12/19 02:49:18;;;;;;;11.90;10.63;;;;;;;4.16;91.80;100603.28;5093700;28;20622;-64
2023/12/19 02:51:45;;;;;;;11.27;10.17;;;;;;;4.18;92.84;100596.97;5093511;28;20715;-65
2023/12/19 02:54:11;;;;;;;15.47;11.03;;;;;;;4.22;92.86;100606.25;5093430;28;20199;-65
2023/12/19 02:56:38;;;;;;;11.40;10.30;;;;;;;4.27;93.47;100601.44;5093712;28;20199;-65
2023/12/19 02:59:06;;;;;;;16.73;10.80;;;;;;;4.32;93.37;100599.25;5093395;28;20604;-65
2023/12/19 03:01:33;;;;;;;10.77;9.77;;;;;;;4.33;92.76;100600.91;5093274;28;20506;-65
2023/12/19 03:03:59;;;;;;;11.47;10.37;;;;;;;4.15;92.40;100565.66;5093584;28;20738;-65
2023/12/19 03:06:26;;;;;;;10.70;9.63;;;;;;;4.36;92.92;100595.41;5093183;28;20252;-65
2023/12/19 03:08:57;;;;;;;10.93;9.83;;;;;;;4.35;92.86;100585.84;5093243;28;20191;-65
2023/12/19 03:11:24;;;;;;;11.70;10.63;;;;;;;4.26;92.60;100586.63;5093504;28;20195;-65
2023/12/19 03:13:50;;;;;;;10.83;9.70;;;;;;;4.23;91.70;100583.41;5093315;28;20194;-66
2023/12/19 03:16:18;;;;;;;11.63;10.43;;;;;;;4.20;92.20;100583.66;5092703;28;20643;-66
2023/12/19 03:18:45;;;;;;;11.60;10.20;;;;;;;4.15;91.84;100581.44;5093446;28;20868;-66
2023/12/19 03:21:12;;;;;;;11.33;10.23;;;;;;;4.03;91.44;100582.47;5093263;28;20445;-65
2023/12/19 03:23:38;;;;;;;9.70;8.70;;;;;;;4.02;92.12;100586.06;5093208;28;20682;-67
2023/12/19 03:26:06;;;;;;;10.93;9.93;;;;;;;3.90;91.71;100592.31;5093123;28;20434;-66
2023/12/19 03:28:35;;;;;;;21.27;15.03;;;;;;;3.65;93.70;100591.84;5093221;28;20190;-66
2023/12/19 03:31:01;;;;;;;20.17;14.27;;;;;;;3.63;94.21;100584.06;5093305;28;20274;-65
2023/12/19 03:33:30;;;;;;;22.13;13.60;;;;;;;3.66;94.71;100583.84;5092886;28;20542;-66
2023/12/19 03:35:57;;;;;;;18.83;13.57;;;;;;;3.62;95.00;100581.56;5092626;28;20955;-66
2023/12/19 03:38:23;;;;;;;17.43;13.83;;;;;;;3.67;94.93;100585.50;5093135;28;20441;-66
2023/12/19 03:40:50;;;;;;;18.97;14.13;;;;;;;3.71;94.60;100581.66;5092508;28;20433;-66
2023/12/19 03:43:17;;;;;;;19.03;13.87;;;;;;;3.76;94.31;100578.66;5093084;28;20441;-66
2023/12/19 03:45:44;;;;;;;25.57;15.60;;;;;;;3.77;93.52;100575.91;5092580;28;20437;-65
2023/12/19 03:48:10;;;;;;;25.03;14.93;;;;;;;3.73;92.79;100579.75;5092787;28;20192;-66
2023/12/19 03:50:38;;;;;;;20.17;14.87;;;;;;;3.66;93.01;100570.69;5092950;28;20437;-65
2023/12/19 03:53:05;;;;;;;20.80;15.03;;;;;;;3.71;93.45;100571.16;5092434;28;20896;-65
2023/12/19 03:55:32;;;;;;;21.93;14.10;;;;;;;3.71;93.56;100581.66;5092796;28;20195;-65
2023/12/19 03:57:58;;;;;;;20.70;15.07;;;;;;;3.72;93.27;100580.69;5092530;28;20248;-66
2023/12/19 04:00:25;;;;;;;26.80;15.50;;;;;;;3.64;92.59;100569.97;5092311;28;20547;-67
2023/12/19 04:02:52;;;;;;;24.43;15.80;;;;;;;3.65;92.93;100568.19;5092609;28;20199;-66
2023/12/19 04:05:20;;;;;;;21.70;15.00;;;;;;;3.65;92.70;100576.91;5092206;28;20860;-66
2023/12/19 04:07:48;;;;;;;21.60;15.70;;;;;;;3.66;92.97;100573.31;5092846;28;20595;-66
2023/12/19 04:10:15;;;;;;;17.37;13.20;;;;;;;3.65;92.51;100576.91;5092089;28;20803;-67
2023/12/19 04:12:41;;;;;;;17.47;13.73;;;;;;;3.60;92.75;100568.56;5092270;28;20481;-67
2023/12/19 04:15:09;;;;;;;20.47;14.40;;;;;;;3.64;93.62;100569.97;5092149;28;20503;-67
2023/12/19 04:17:36;;;;;;;19.67;14.60;;;;;;;3.62;92.92;100564.03;5091760;28;20445;-67
2023/12/19 04:20:03;;;;;;;16.60;13.57;;;;;;;3.64;93.02;100569.97;5091928;28;20502;-66
2023/12/19 04:22:31;;;;;;;14.30;12.07;;;;;;;3.66;93.08;100573.31;5092377;28;20197;-66
2023/12/19 04:24:59;;;;;;;20.60;12.77;;;;;;;3.68;92.77;100566.13;5092011;28;20867;-66
2023/12/19 04:27:26;;;;;;;19.73;14.33;;;;;;;3.70;92.64;100571.25;5091770;28;20437;-65
2023/12/19 04:29:55;;;;;;;18.70;12.80;;;;;;;3.70;92.25;100566.84;5091914;28;20437;-66
2023/12/19 04:32:21;;;;;;;19.63;14.03;;;;;;;3.60;92.10;100576.44;5091390;28;20609;-66
2023/12/19 04:34:48;;;;;;;21.80;14.73;;;;;;;3.29;92.77;100572.03;5092120;28;20453;-65
2023/12/19 04:37:15;;;;;;;22.83;15.90;;;;;;;3.24;94.47;100571.56;5079436;28;20434;-65
2023/12/19 04:39:41;;;;;;;20.93;15.27;;;;;;;3.31;94.82;100571.91;5072063;28;20442;-66
2023/12/19 04:42:12;;;;;;;20.63;14.23;;;;;;;3.33;94.56;100565.56;5071275;28;20668;-66
2023/12/19 04:44:39;;;;;;;22.27;14.93;;;;;;;3.36;93.66;100570.56;5071508;28;20422;-65
2023/12/19 04:47:05;;;;;;;21.33;15.70;;;;;;;3.38;93.83;100573.91;5071228;28;20200;-65
2023/12/19 04:49:32;;;;;;;19.90;15.50;;;;;;;3.40;93.85;100582.50;5071155;28;20438;-66
2023/12/19 04:51:59;;;;;;;15.73;12.67;;;;;;;3.43;93.61;100576.97;5071115;28;20941;-66
2023/12/19 04:54:26;;;;;;;16.83;13.33;;;;;;;3.48;93.86;100585.31;5071542;28;20491;-66
2023/12/19 04:56:52;;;;;;;15.30;12.10;;;;;;;3.49;94.20;100581.75;5070676;28;21010;-66
2023/12/19 04:59:20;;;;;;;18.97;14.00;;;;;;;3.48;93.71;100590.56;5070766;28;20450;-66
2023/12/19 05:01:47;;;;;;;20.90;13.80;;;;;;;3.43;93.49;100581.41;5071040;28;20203;-66
2023/12/19 05:04:14;;;;;;;17.23;14.03;;;;;;;3.36;93.17;100588.97;5070536;28;20495;-66
2023/12/19 05:06:41;;;;;;;19.03;14.27;;;;;;;3.32;92.97;100584.91;5070983;28;21011;-66
2023/12/19 05:09:08;;;;;;;23.93;15.70;;;;;;;3.18;93.83;100592.22;5070873;28;20442;-65
2023/12/19 05:11:34;;;;;;;22.07;15.70;;;;;;;3.11;94.78;100586.59;5071133;28;20434;-65
2023/12/19 05:14:01;;;;;;;20.93;15.57;;;;;;;3.17;94.26;100591.38;5079362;28;20473;-66
2023/12/19 05:16:29;;;;;;;20.90;15.77;;;;;;;3.14;94.23;100591.63;5081976;28;20438;-65
2023/12/19 05:18:57;;;;;;;21.93;15.67;;;;;;;3.06;95.02;100598.44;5070866;28;20495;-66
2023/12/19 05:21:23;;;;;;;22.53;15.90;;;;;;;3.08;95.39;100600.00;5070992;28;20434;-66
2023/12/19 05:23:50;;;;;;;19.97;15.87;;;;;;;3.09;94.94;100588.53;5070385;28;20953;-67
2023/12/19 05:26:17;;;;;;;27.73;16.17;;;;;;;3.06;95.41;100583.53;5070540;28;20426;-66
2023/12/19 05:28:45;;;;;;;21.77;15.90;;;;;;;3.15;95.36;100588.03;5075761;28;20602;-66
2023/12/19 05:31:12;;;;;;;25.53;16.00;;;;;;;3.18;95.01;100587.78;5079278;28;20438;-66
2023/12/19 05:33:41;;;;;;;22.23;15.73;;;;;;;3.26;95.12;100595.88;5081283;28;20563;-65
2023/12/19 05:36:13;;;;;;;21.73;16.93;;;;;;;3.30;94.58;100586.81;5078917;28;20444;-66
2023/12/19 05:38:39;;;;;;;31.43;21.57;;;;;;;3.33;94.59;100583.94;5080195;28;20596;-66
2023/12/19 05:41:06;;;;;;;25.77;19.67;;;;;;;3.33;94.29;100576.06;5079849;28;20490;-66
2023/12/19 05:43:33;;;;;;;26.87;20.87;;;;;;;3.35;94.38;100584.63;5081232;28;20437;-66
2023/12/19 05:46:00;;;;;;;29.97;19.40;;;;;;;3.30;93.92;100586.81;5080303;28;20499;-66
2023/12/19 05:48:26;;;;;;;24.90;17.30;;;;;;;3.15;94.22;100585.41;5079532;28;20457;-66
2023/12/19 05:50:54;;;;;;;25.57;19.33;;;;;;;3.22;94.88;100583.97;5080811;28;20442;-67
2023/12/19 05:53:21;;;;;;;27.93;19.40;;;;;;;3.28;94.61;100583.50;5072716;28;21036;-67
2023/12/19 05:55:48;;;;;;;33.83;21.63;;;;;;;3.26;94.48;100589.78;5070096;28;20429;-66
2023/12/19 05:58:15;;;;;;;31.27;21.23;;;;;;;3.34;94.86;100593.47;5069986;28;20943;-66
2023/12/19 06:00:44;;;;;;;32.77;21.67;;;;;;;3.39;94.53;100591.31;5070176;28;20512;-66
2023/12/19 06:03:11;;;;;;;38.33;23.33;;;;;;;3.46;94.37;100592.50;5070620;28;20541;-66
2023/12/19 06:05:39;;;;;;;57.97;29.60;;;;;;;3.51;94.03;100600.84;5069690;28;20449;-66
2023/12/19 06:08:07;;;;;;;59.33;31.43;;;;;;;3.50;93.82;100599.16;5070206;28;20446;-66
2023/12/19 06:10:34;;;;;;;50.03;28.17;;;;;;;3.46;93.94;100602.16;5072270;28;20664;-67
2023/12/19 06:13:01;;;;;;;59.27;30.03;;;;;;;3.54;94.23;100605.84;5073212;28;20830;-67
2023/12/19 06:15:28;;;;;;;74.17;35.83;;;;;;;3.61;94.01;100604.41;5074177;28;20441;-66
2023/12/19 06:17:54;;;;;;;71.50;39.13;;;;;;;3.71;93.76;100601.81;5072986;28;20811;-66
2023/12/19 06:20:21;;;;;;;68.50;34.63;;;;;;;3.70;93.61;100590.50;5073901;28;20512;-66
2023/12/19 06:22:48;;;;;;;55.40;31.30;;;;;;;3.96;94.63;100597.06;5073726;28;20450;-69
2023/12/19 06:25:16;;;;;;;47.23;30.17;;;;;;;4.17;95.10;100604.97;5073468;28;20511;-65
2023/12/19 06:27:44;;;;;;;53.50;31.97;;;;;;;4.39;94.89;100594.31;5073791;28;20467;-66
2023/12/19 06:30:11;;;;;;;63.00;33.07;;;;;;;4.59;94.34;100598.69;5073368;28;20191;-66
2023/12/19 06:32:40;;;;;;;57.67;35.20;;;;;;;4.83;92.85;100605.31;5075036;28;20522;-66
2023/12/19 06:35:08;;;;;;;58.73;35.07;;;;;;;5.15;92.23;100595.44;5093283;28;20688;-66
2023/12/19 06:37:35;;;;;;;57.07;34.87;;;;;;;5.39;89.43;100595.91;5075706;28;20871;-66
2023/12/19 06:40:03;;;;;;;57.97;35.73;;;;;;;5.84;89.72;100600.72;5087456;28;20632;-66
2023/12/19 06:42:32;;;;;;;58.03;36.60;;;;;;;6.12;86.64;100618.31;5088642;28;20700;-67
2023/12/19 06:45:00;;;;;;;60.80;36.93;;;;;;;6.44;87.58;100603.81;5088419;28;20624;-66
2023/12/19 06:47:27;;;;;;;61.20;34.70;;;;;;;6.81;85.66;100607.31;5072414;28;20199;-65
2023/12/19 06:49:54;;;;;;;48.30;34.53;;;;;;;7.23;84.68;100612.97;5069778;28;20200;-65
2023/12/19 06:52:21;;;;;;;55.30;35.67;;;;;;;7.58;82.47;100605.91;5069109;28;20201;-68
2023/12/19 06:54:48;;;;;;;57.93;36.23;;;;;;;7.89;79.29;100611.69;5108381;28;20276;-67
2023/12/19 06:57:15;;;;;;;56.27;36.67;;;;;;;8.27;78.62;100611.38;5110667;28;20190;-66
2023/12/19 06:59:43;;;;;;;44.40;31.97;;;;;;;8.44;74.51;100623.72;5109963;28;20282;-66
2023/12/19 07:02:10;;;;;;;74.43;47.10;;;;;;;8.60;75.39;100621.19;5110714;28;20206;-69
2023/12/19 07:04:36;;;;;;;51.87;34.43;;;;;;;9.02;74.39;100619.44;5109631;28;20197;-68
2023/12/19 07:07:03;;;;;;;48.23;33.10;;;;;;;9.70;73.86;100631.63;5110758;27;20671;-67
2023/12/19 07:09:30;;;;;;;51.03;33.63;;;;;;;10.04;70.27;100640.28;5110206;28;20712;-67
2023/12/19 07:11:57;;;;;;;49.07;33.67;;;;;;;10.45;70.91;100647.28;5108925;27;20186;-66
2023/12/19 07:14:24;;;;;;;58.17;37.53;;;;;;;10.90;68.09;100652.88;5111997;28;20230;-64
2023/12/19 07:16:52;;;;;;;47.63;33.47;;;;;;;11.27;66.63;100663.72;5103797;28;20199;-65
2023/12/19 07:19:19;;;;;;;42.23;26.93;;;;;;;11.42;65.45;100651.38;5087919;28;20287;-65
2023/12/19 07:21:48;;;;;;;47.70;28.90;;;;;;;11.60;63.46;100638.66;5084262;28;20258;-66
2023/12/19 07:24:15;;;;;;;34.90;24.33;;;;;;;11.81;64.58;100641.56;5089549;28;20193;-65
2023/12/19 07:26:42;;;;;;;44.33;30.40;;;;;;;12.11;62.76;100646.00;5089370;28;20737;-64
2023/12/19 07:29:10;;;;;;;43.73;30.57;;;;;;;12.40;62.15;100638.09;5090248;28;20740;-67
2023/12/19 07:31:38;;;;;;;48.50;30.93;;;;;;;12.71;60.78;100636.16;5089459;28;20197;-66
2023/12/19 07:34:06;;;;;;;44.37;31.40;;;;;;;12.80;60.60;100632.41;5085840;28;20197;-64
2023/12/19 07:36:34;;;;;;;48.53;31.07;;;;;;;13.08;59.57;100628.13;5080830;28;20288;-65
2023/12/19 07:39:01;;;;;;;37.17;26.17;;;;;;;13.34;58.97;100623.13;5076703;28;20187;-66
2023/12/19 07:41:28;;;;;;;35.60;26.67;;;;;;;13.61;57.54;100613.59;5073992;28;20241;-66
2023/12/19 07:43:54;;;;;;;37.67;26.83;;;;;;;13.86;57.94;100618.41;5090717;28;20255;-63
2023/12/19 07:46:21;;;;;;;32.00;25.67;;;;;;;14.11;57.57;100617.00;5076587;28;20199;-64
2023/12/19 07:48:48;;;;;;;26.37;19.53;;;;;;;14.42;54.35;100625.53;5078472;28;20324;-64
2023/12/19 07:51:21;;;;;;;23.97;18.37;;;;;;;14.46;54.85;100612.63;5083600;28;20601;-63
2023/12/19 07:53:48;;;;;;;19.77;16.10;;;;;;;14.41;55.08;100615.88;5076221;28;20621;-64
2023/12/19 07:56:15;;;;;;;20.93;15.00;;;;;;;14.49;55.30;100618.41;5090238;28;20203;-64
2023/12/19 07:58:43;;;;;;;11.23;10.03;;;;;;;14.56;52.78;100616.63;5075046;28;20233;-64
2023/12/19 08:01:12;;;;;;;11.50;8.73;;;;;;;14.42;52.85;100608.69;5072415;28;20191;-63
2023/12/19 08:03:39;;;;;;;16.77;10.80;;;;;;;14.36;52.66;100607.59;5069615;28;20290;-64
2023/12/19 08:06:06;;;;;;;28.60;20.70;;;;;;;14.41;52.16;100613.19;5070436;28;20249;-63
2023/12/19 08:08:34;;;;;;;19.87;12.17;;;;;;;14.52;52.35;100601.97;5073611;28;20256;-64
2023/12/19 08:11:01;;;;;;;11.20;8.90;;;;;;;14.53;53.06;100595.59;5070620;28;20192;-64
2023/12/19 08:13:28;;;;;;;8.23;7.40;;;;;;;14.51;52.17;100610.19;5071692;28;20266;-63
2023/12/19 08:15:54;;;;;;;5.93;5.53;;;;;;;14.28;53.73;100597.06;5087210;28;20249;-64
2023/12/19 08:18:21;;;;;;;5.43;5.03;;;;;;;14.45;53.77;100603.75;5083201;28;20195;-62
2023/12/19 08:20:48;;;;;;;5.70;5.13;;;;;;;14.43;53.81;100594.28;5082876;28;20188;-64
2023/12/19 08:23:15;;;;;;;6.47;5.53;;;;;;;14.54;52.29;100597.25;5077668;28;20242;-63
2023/12/19 08:25:43;;;;;;;8.47;7.40;;;;;;;14.51;53.57;100592.31;5083493;28;20191;-63
2023/12/19 08:28:10;;;;;;;9.87;7.00;;;;;;;14.49;51.90;100589.00;5080068;28;20220;-64
2023/12/19 08:30:38;;;;;;;8.47;7.50;;;;;;;14.69;52.88;100579.25;5078930;28;20191;-65
2023/12/19 08:33:05;;;;;;;11.13;8.33;;;;;;;14.89;52.10;100576.69;5083130;28;20245;-62
2023/12/19 08:35:32;;;;;;;12.60;8.50;;;;;;;14.91;52.09;100572.00;5085913;28;20195;-62
2023/12/19 08:37:58;;;;;;;7.07;6.37;;;;;;;14.97;52.31;100573.88;5083709;28;20191;-64
2023/12/19 08:40:25;;;;;;;7.77;7.17;;;;;;;15.39;51.05;100566.47;5078433;28;20191;-63
2023/12/19 08:42:54;;;;;;;10.67;7.53;;;;;;;15.80;49.33;100563.69;5085481;28;20666;-61
2023/12/19 08:45:22;;;;;;;10.37;7.50;;;;;;;16.15;48.09;100561.66;5081137;28;20220;-64
2023/12/19 08:47:50;;;;;;;11.17;6.17;;;;;;;16.50;47.33;100555.09;5078738;28;20227;-63
2023/12/19 08:50:17;;;;;;;9.93;6.07;;;;;;;16.82;46.02;100551.53;5086259;28;20209;-64
2023/12/19 08:52:44;;;;;;;8.57;5.77;;;;;;;17.00;46.11;100544.44;5088757;28;20211;-63
2023/12/19 08:55:12;;;;;;;5.20;4.80;;;;;;;17.09;45.56;100542.34;5089544;28;20211;-63
2023/12/19 08:57:40;;;;;;;5.77;5.27;;;;;;;16.95;44.84;100540.75;5086408;28;20199;-65
2023/12/19 09:00:12;;;;;;;6.13;5.53;;;;;;;16.92;44.74;100542.00;5083380;28;20188;-63
2023/12/19 09:02:39;;;;;;;3.93;3.30;;;;;;;17.09;42.82;100539.66;5080624;28;20207;-64
2023/12/19 09:05:07;;;;;;;4.90;3.30;;;;;;;17.06;42.95;100532.03;5089326;28;20576;-63
2023/12/19 09:07:34;;;;;;;4.03;3.73;;;;;;;17.18;42.64;100539.19;5089131;28;20195;-64
2023/12/19 09:10:01;;;;;;;5.67;3.70;;;;;;;17.47;41.65;100533.31;5083697;28;20622;-65
2023/12/19 09:12:28;;;;;;;5.43;3.97;;;;;;;17.71;42.05;100524.47;5079754;28;20194;-64
2023/12/19 09:14:54;;;;;;;6.07;4.97;;;;;;;18.02;42.03;100526.31;5078919;28;20603;-64
2023/12/19 09:17:22;;;;;;;5.60;5.10;;;;;;;18.29;41.47;100511.63;5078595;28;20196;-64
2023/12/19 09:19:49;;;;;;;5.37;4.00;;;;;;;18.50;41.39;100509.34;5071231;28;20266;-66
2023/12/19 09:22:16;;;;;;;6.97;3.17;;;;;;;18.75;40.28;100506.63;5079920;28;20260;-66
2023/12/19 09:24:43;;;;;;;3.93;3.50;;;;;;;18.81;40.10;100500.31;5096980;28;20234;-66
2023/12/19 09:27:09;;;;;;;7.10;6.60;;;;;;;18.92;39.74;100486.13;5079198;28;20253;-65
2023/12/19 09:29:36;;;;;;;6.10;4.13;;;;;;;18.99;38.66;100489.56;5075984;28;20208;-65
2023/12/19 09:32:05;;;;;;;5.90;3.77;;;;;;;18.90;39.49;100483.66;5079461;28;20300;-63
2023/12/19 09:34:33;;;;;;;3.30;3.10;;;;;;;18.82;39.14;100477.72;5076010;28;20258;-67
2023/12/19 09:36:59;;;;;;;8.30;3.17;;;;;;;18.95;39.38;100481.09;5079306;28;20192;-66
2023/12/19 09:39:26;;;;;;;5.73;4.40;;;;;;;19.05;39.23;100476.00;5076704;28;20193;-65
2023/12/19 09:41:54;;;;;;;5.90;4.03;;;;;;;19.11;38.35;100468.91;5079396;28;20663;-64
2023/12/19 09:44:20;;;;;;;9.63;6.63;;;;;;;18.99;38.86;100476.91;5078783;28;20224;-64
2023/12/19 09:46:50;;;;;;;20.70;11.47;;;;;;;18.98;39.46;100458.28;5083327;28;20594;-64
2023/12/19 09:49:21;;;;;;;16.33;9.00;;;;;;;19.12;39.11;100465.97;5081177;28;20281;-63
2023/12/19 09:51:52;;;;;;;5.73;4.67;;;;;;;19.17;39.19;100459.91;5082814;28;20235;-65
2023/12/19 09:54:21;;;;;;;9.43;5.90;;;;;;;19.16;38.56;100456.38;5084355;28;20260;-66
2023/12/19 09:56:48;;;;;;;6.67;6.03;;;;;;;19.22;38.30;100460.88;5091610;28;20253;-66
2023/12/19 09:59:18;;;;;;;4.53;4.13;;;;;;;19.27;38.59;100446.72;5092419;28;20264;-63
2023/12/19 10:01:45;;;;;;;3.20;2.80;;;;;;;19.24;37.00;100448.00;5092179;28;20201;-64
2023/12/19 10:04:14;;;;;;;3.53;3.23;;;;;;;19.25;37.71;100443.44;5092074;28;20207;-66
2023/12/19 10:06:42;;;;;;;4.53;2.43;;;;;;;19.19;37.36;100438.97;5091931;28;20273;-65
2023/12/19 10:09:15;;;;;;;7.80;3.20;;;;;;;19.22;36.53;100433.91;5092654;28;20243;-66
2023/12/19 10:11:42;;;;;;;4.57;2.63;;;;;;;19.15;36.54;100432.38;5091946;28;20184;-64
2023/12/19 10:14:11;;;;;;;3.07;2.47;;;;;;;18.97;36.76;100424.31;5091551;28;20254;-64
2023/12/19 10:16:40;;;;;;;3.20;2.17;;;;;;;18.97;36.34;100424.31;5092342;28;20196;-63
2023/12/19 10:19:13;;;;;;;7.90;2.57;;;;;;;18.77;36.59;100429.13;5091941;28;20199;-63
2023/12/19 10:21:40;;;;;;;3.37;2.53;;;;;;;18.68;37.19;100414.34;5091423;28;20187;-64
2023/12/19 10:24:08;;;;;;;3.33;2.93;;;;;;;18.71;37.25;100420.09;5092124;28;20298;-64
2023/12/19 10:26:36;;;;;;;3.40;3.20;;;;;;;18.70;37.51;100413.06;5092141;28;20246;-65
2023/12/19 10:29:02;;;;;;;7.10;3.70;;;;;;;18.43;37.76;100405.53;5092330;28;20196;-62
2023/12/19 10:31:29;;;;;;;4.20;3.17;;;;;;;18.32;38.50;100403.56;5092032;28;20199;-64
2023/12/19 10:33:56;;;;;;;5.90;2.80;;;;;;;17.99;38.73;100379.72;5085748;28;20265;-64
2023/12/19 10:36:24;;;;;;;2.70;2.50;;;;;;;17.65;39.36;100396.38;5081495;28;20222;-63
2023/12/19 10:38:51;;;;;;;3.10;2.67;;;;;;;17.67;39.99;100388.91;5083217;28;20526;-64
2023/12/19 10:41:20;;;;;;;6.27;3.10;;;;;;;17.81;40.34;100386.94;5078218;28;20191;-63
2023/12/19 10:43:50;;;;;;;7.23;3.90;;;;;;;17.95;40.48;100380.38;5078089;28;20295;-65
2023/12/19 10:46:18;;;;;;;4.90;3.27;;;;;;;18.04;39.65;100368.28;5071244;28;20192;-64
2023/12/19 10:48:46;;;;;;;3.50;3.20;;;;;;;17.95;40.08;100375.81;5071726;28;20230;-65
2023/12/19 10:51:16;;;;;;;3.20;3.00;;;;;;;17.80;40.01;100363.78;5072123;28;20278;-64
2023/12/19 10:53:49;;;;;;;3.90;3.17;;;;;;;17.47;40.65;100357.88;5071219;28;20325;-63
2023/12/19 10:56:24;;;;;;;3.20;2.90;;;;;;;17.29;40.78;100345.19;5071869;28;20200;-65
2023/12/19 10:58:58;;;;;;;3.60;2.83;;;;;;;17.31;40.76;100340.41;5072056;28;20191;-63
2023/12/19 11:01:27;;;;;;;5.80;3.00;;;;;;;17.13;41.47;100337.66;5072094;28;20386;-63
2023/12/19 11:03:58;;;;;;;3.17;2.97;;;;;;;17.22;41.45;100339.03;5072078;28;20201;-64
2023/12/19 11:06:30;;;;;;;7.47;3.03;;;;;;;17.40;41.00;100327.53;5072798;28;20243;-64
2023/12/19 11:09:05;;;;;;;7.27;4.23;;;;;;;17.59;40.96;100331.91;5074700;28;20254;-64
2023/12/19 11:11:38;;;;;;;5.50;3.03;;;;;;;17.67;40.65;100326.25;5074922;28;20727;-65
2023/12/19 11:14:06;;;;;;;3.30;3.00;;;;;;;17.72;40.15;100326.44;5072042;28;20188;-64
2023/12/19 11:16:40;;;;;;;9.40;3.87;;;;;;;17.89;39.70;100317.56;5072504;28;20252;-64
2023/12/19 11:19:16;;;;;;;7.03;3.40;;;;;;;17.79;40.90;100298.44;5089492;28;20236;-64
2023/12/19 11:21:52;;;;;;;26.70;6.30;;;;;;;17.82;40.52;100305.25;5092098;28;20183;-64